createdAt,value
2022-10-29T00:00:42.353Z,3.42
2022-10-29T00:03:09.705Z,3.78
2022-10-29T00:05:36.829Z,3.38
2022-10-29T00:08:03.946Z,3.17
2022-10-29T00:10:31.021Z,3.67
2022-10-29T00:13:00.926Z,3.60
2022-10-29T00:15:30.930Z,3.10
2022-10-29T00:17:58.354Z,3.30
2022-10-29T00:20:25.710Z,3.53
2022-10-29T00:22:55.806Z,3.63
2022-10-29T00:25:23.192Z,3.95
2022-10-29T00:27:50.244Z,3.47
2022-10-29T00:30:17.438Z,3.35
2022-10-29T00:32:44.487Z,3.38
2022-10-29T00:35:11.536Z,3.80
2022-10-29T00:37:40.759Z,3.28
2022-10-29T00:40:08.179Z,3.33
2022-10-29T00:42:35.229Z,3.75
2022-10-29T00:45:02.296Z,3.15
2022-10-29T00:47:32.269Z,3.42
2022-10-29T00:50:08.609Z,3.60
2022-10-29T00:52:37.594Z,3.70
2022-10-29T00:55:06.269Z,3.72
2022-10-29T00:57:47.031Z,3.95
2022-10-29T01:00:14.675Z,3.25
2022-10-29T01:02:42.899Z,3.80
2022-10-29T01:05:10.512Z,3.60
2022-10-29T01:07:37.992Z,3.53
2022-10-29T01:10:05.220Z,3.67
2022-10-29T01:12:49.025Z,3.65
2022-10-29T01:15:27.047Z,3.88
2022-10-29T01:18:01.609Z,3.92
2022-10-29T01:20:44.445Z,4.10
2022-10-29T01:23:14.340Z,3.90
2022-10-29T01:25:44.301Z,3.65
2022-10-29T01:31:10.781Z,3.60
2022-10-29T01:33:53.083Z,3.95
2022-10-29T01:36:26.256Z,4.20
2022-10-29T01:39:05.898Z,3.33
2022-10-29T01:41:39.898Z,2.88
2022-10-29T01:44:43.226Z,3.28
2022-10-29T01:47:16.256Z,3.22
2022-10-29T01:52:13.525Z,2.63
2022-10-29T01:54:42.204Z,2.67
2022-10-29T01:57:28.718Z,3.15
2022-10-29T01:59:57.689Z,3.03
2022-10-29T02:02:30.917Z,3.30
2022-10-29T02:04:57.947Z,2.95
2022-10-29T02:07:31.125Z,3.35
2022-10-29T02:10:08.450Z,3.05
2022-10-29T02:12:39.320Z,3.60
2022-10-29T02:15:21.324Z,3.65
2022-10-29T02:17:48.673Z,3.83
2022-10-29T02:20:16.120Z,3.80
2022-10-29T02:22:43.389Z,4.00
2022-10-29T02:25:11.229Z,3.35
2022-10-29T02:27:38.369Z,3.83
2022-10-29T02:30:05.816Z,3.25
2022-10-29T02:32:32.979Z,3.10
2022-10-29T02:35:01.090Z,3.40
2022-10-29T02:37:28.283Z,4.22
2022-10-29T02:39:55.392Z,5.00
2022-10-29T02:42:22.461Z,4.07
2022-10-29T02:44:49.537Z,4.80
2022-10-29T02:47:16.857Z,5.90
2022-10-29T02:49:43.944Z,6.93
2022-10-29T02:52:11.211Z,7.13
2022-10-29T02:54:39.219Z,5.28
2022-10-29T02:57:06.564Z,5.72
2022-10-29T02:59:33.693Z,5.82
2022-10-29T03:02:00.840Z,5.93
2022-10-29T03:04:28.218Z,5.35
2022-10-29T03:06:55.319Z,5.50
2022-10-29T03:09:22.484Z,5.78
2022-10-29T03:11:49.581Z,6.13
2022-10-29T03:14:16.640Z,5.63
2022-10-29T03:16:43.707Z,5.43
2022-10-29T03:19:10.761Z,6.70
2022-10-29T03:21:37.934Z,5.40
2022-10-29T03:24:05.520Z,4.90
2022-10-29T03:26:32.695Z,5.40
2022-10-29T03:28:59.767Z,5.30
2022-10-29T03:31:26.893Z,6.55
2022-10-29T03:33:54.014Z,5.88
2022-10-29T03:36:21.268Z,5.80
2022-10-29T03:38:48.375Z,5.63
2022-10-29T03:41:15.441Z,6.50
2022-10-29T03:43:42.527Z,5.38
2022-10-29T03:46:09.679Z,5.45
2022-10-29T03:48:36.809Z,5.78
2022-10-29T03:51:08.026Z,5.72
2022-10-29T03:53:36.182Z,5.40
2022-10-29T03:56:03.579Z,6.20
2022-10-29T03:58:30.620Z,5.28
2022-10-29T04:00:58.880Z,6.05
2022-10-29T04:03:26.037Z,5.72
2022-10-29T04:05:53.196Z,4.95
2022-10-29T04:08:20.703Z,5.30
2022-10-29T04:10:48.749Z,5.72
2022-10-29T04:13:15.880Z,5.18
2022-10-29T04:15:43.005Z,5.85
2022-10-29T04:18:10.463Z,5.22
2022-10-29T04:21:03.119Z,5.13
2022-10-29T04:28:58.847Z,5.07
2022-10-29T04:31:25.909Z,5.60
2022-10-29T04:33:55.705Z,5.60
2022-10-29T04:36:22.739Z,5.43
2022-10-29T04:38:50.772Z,5.25
2022-10-29T04:41:17.882Z,5.55
2022-10-29T04:43:44.916Z,5.30
2022-10-29T04:46:12.296Z,5.43
2022-10-29T04:48:39.435Z,5.75
2022-10-29T04:51:06.691Z,6.05
2022-10-29T04:53:33.733Z,5.85
2022-10-29T04:56:01.557Z,5.47
2022-10-29T04:58:28.733Z,5.82
2022-10-29T05:01:01.352Z,5.85
2022-10-29T05:03:28.498Z,5.88
2022-10-29T05:05:55.550Z,5.90
2022-10-29T05:08:22.597Z,5.93
2022-10-29T05:10:49.657Z,6.13
2022-10-29T05:13:16.865Z,6.30
2022-10-29T05:15:45.931Z,6.43
2022-10-29T05:18:15.076Z,6.50
2022-10-29T05:20:42.130Z,6.10
2022-10-29T05:23:10.685Z,5.97
2022-10-29T05:25:38.604Z,6.53
2022-10-29T05:28:07.171Z,6.00
2022-10-29T05:30:34.694Z,6.07
2022-10-29T05:33:01.779Z,6.40
2022-10-29T05:35:28.854Z,6.40
2022-10-29T05:37:56.758Z,6.00
2022-10-29T05:40:24.329Z,6.63
2022-10-29T05:42:51.572Z,5.97
2022-10-29T05:45:18.724Z,6.30
2022-10-29T05:47:45.785Z,6.25
2022-10-29T05:50:13.207Z,6.38
2022-10-29T05:52:40.579Z,6.53
2022-10-29T05:55:07.879Z,6.28
2022-10-29T05:57:34.926Z,5.68
2022-10-29T06:00:05.768Z,6.43
2022-10-29T06:02:39.167Z,6.80
2022-10-29T06:05:06.476Z,6.40
2022-10-29T06:07:33.559Z,6.45
2022-10-29T06:10:00.609Z,6.30
2022-10-29T06:12:31.138Z,6.35
2022-10-29T06:15:00.962Z,5.95
2022-10-29T06:17:28.122Z,6.90
2022-10-29T06:19:55.166Z,7.00
2022-10-29T06:22:22.199Z,6.20
2022-10-29T06:24:49.250Z,6.32
2022-10-29T06:27:16.293Z,6.65
2022-10-29T06:29:43.337Z,7.07
2022-10-29T06:32:10.354Z,6.93
2022-10-29T06:34:37.389Z,6.78
2022-10-29T06:37:04.437Z,6.38
2022-10-29T06:39:31.489Z,7.28
2022-10-29T06:41:58.569Z,7.05
2022-10-29T06:44:30.141Z,6.97
2022-10-29T06:46:57.245Z,7.35
2022-10-29T06:49:24.391Z,7.10
2022-10-29T06:51:52.264Z,7.10
2022-10-29T06:54:19.314Z,6.72
2022-10-29T06:56:46.352Z,7.43
2022-10-29T06:59:13.392Z,6.90
2022-10-29T07:01:40.528Z,6.65
2022-10-29T07:04:07.612Z,7.03
2022-10-29T07:06:34.891Z,7.03
2022-10-29T07:09:02.033Z,6.65
2022-10-29T07:11:29.145Z,7.50
2022-10-29T07:13:56.193Z,6.78
2022-10-29T07:16:23.280Z,7.90
2022-10-29T07:18:50.323Z,7.50
2022-10-29T07:21:17.434Z,7.05
2022-10-29T07:23:44.521Z,8.13
2022-10-29T07:26:11.557Z,7.93
2022-10-29T07:28:38.606Z,7.93
2022-10-29T07:31:07.610Z,8.43
2022-10-29T07:33:34.663Z,7.75
2022-10-29T07:36:01.727Z,8.23
2022-10-29T07:38:28.790Z,8.40
2022-10-29T07:40:55.882Z,8.32
2022-10-29T07:43:23.345Z,9.27
2022-10-29T07:45:51.018Z,8.52
2022-10-29T07:48:18.605Z,9.55
2022-10-29T07:50:45.749Z,9.15
2022-10-29T07:53:12.894Z,8.65
2022-10-29T07:55:39.937Z,9.75
2022-10-29T07:58:08.725Z,10.25
2022-10-29T08:00:36.892Z,10.10
2022-10-29T08:03:04.286Z,10.32
2022-10-29T08:05:31.959Z,10.18
2022-10-29T08:07:59.922Z,11.50
2022-10-29T08:10:27.706Z,10.05
2022-10-29T08:12:56.445Z,10.45
2022-10-29T08:15:24.778Z,9.98
2022-10-29T08:17:52.278Z,9.77
2022-10-29T08:20:19.475Z,9.80
2022-10-29T08:22:46.707Z,10.60
2022-10-29T08:25:13.989Z,9.80
2022-10-29T08:27:41.101Z,10.18
2022-10-29T08:30:09.277Z,9.93
2022-10-29T08:32:36.487Z,10.38
2022-10-29T08:35:03.520Z,10.27
2022-10-29T08:37:30.708Z,10.15
2022-10-29T08:39:57.750Z,9.95
2022-10-29T08:42:34.141Z,10.50
2022-10-29T08:45:09.232Z,10.50
2022-10-29T08:48:14.517Z,10.15
2022-10-29T08:50:44.098Z,11.02
2022-10-29T08:53:41.943Z,10.98
2022-10-29T08:56:19.011Z,11.52
2022-10-29T08:58:51.112Z,11.40
2022-10-29T09:01:20.444Z,11.80
2022-10-29T09:03:47.550Z,11.60
2022-10-29T09:06:15.903Z,10.90
2022-10-29T09:08:54.550Z,11.50
2022-10-29T09:11:21.582Z,10.63
2022-10-29T09:14:16.879Z,10.82
2022-10-29T09:17:15.587Z,10.93
2022-10-29T09:20:25.550Z,9.75
2022-10-29T09:23:07.716Z,10.30
2022-10-29T09:25:41.872Z,10.13
2022-10-29T09:28:11.669Z,9.93
2022-10-29T09:30:48.362Z,10.38
2022-10-29T09:33:17.438Z,10.15
2022-10-29T09:35:47.000Z,10.05
2022-10-29T09:38:22.117Z,10.20
2022-10-29T09:40:49.152Z,10.52
2022-10-29T09:43:20.258Z,10.23
2022-10-29T09:45:50.036Z,10.52
2022-10-29T09:48:27.760Z,10.00
2022-10-29T09:51:08.952Z,11.13
2022-10-29T09:53:36.087Z,10.63
2022-10-29T09:56:07.636Z,10.00
2022-10-29T09:58:39.308Z,10.35
2022-10-29T10:01:06.446Z,9.55
2022-10-29T10:03:42.722Z,9.90
2022-10-29T10:06:11.850Z,9.88
2022-10-29T10:09:01.874Z,9.80
2022-10-29T10:11:38.168Z,8.93
2022-10-29T10:14:31.171Z,10.07
2022-10-29T10:17:01.641Z,9.30
2022-10-29T10:19:31.106Z,9.02
2022-10-29T10:21:59.364Z,9.32
2022-10-29T10:24:33.370Z,9.40
2022-10-29T10:27:01.313Z,9.23
2022-10-29T10:29:28.742Z,9.93
2022-10-29T10:31:55.758Z,9.85
2022-10-29T10:34:26.665Z,8.90
2022-10-29T10:37:09.973Z,10.10
2022-10-29T10:39:38.581Z,8.82
2022-10-29T10:42:14.531Z,8.90
2022-10-29T10:44:54.316Z,8.60
2022-10-29T10:47:24.193Z,9.30
2022-10-29T10:49:51.272Z,8.60
2022-10-29T10:52:26.182Z,9.23
2022-10-29T10:55:00.155Z,8.57
2022-10-29T10:57:32.533Z,8.20
2022-10-29T11:00:03.302Z,8.43
2022-10-29T11:02:52.047Z,8.57
2022-10-29T11:05:29.146Z,7.72
2022-10-29T11:08:11.323Z,8.02
2022-10-29T11:10:44.582Z,7.82
2022-10-29T11:13:16.133Z,7.75
2022-10-29T11:16:17.761Z,8.77
2022-10-29T11:19:23.054Z,7.65
2022-10-29T11:22:18.353Z,7.40
2022-10-29T11:24:45.391Z,8.18
2022-10-29T11:27:43.169Z,7.63
2022-10-29T11:30:15.723Z,7.30
2022-10-29T11:36:01.789Z,6.75
2022-10-29T11:38:45.175Z,6.15
2022-10-29T11:41:12.207Z,6.70
2022-10-29T11:43:39.278Z,5.75
2022-10-29T11:46:39.085Z,5.70
2022-10-29T11:49:20.697Z,5.30
2022-10-29T11:52:05.932Z,6.32
2022-10-29T11:54:51.575Z,5.55
2022-10-29T11:57:23.681Z,5.47
2022-10-29T12:00:09.322Z,5.70
2022-10-29T12:02:42.244Z,5.22
2022-10-29T12:05:30.064Z,5.18
2022-10-29T12:08:00.165Z,5.75
2022-10-29T12:10:30.111Z,6.28
2022-10-29T12:13:05.390Z,5.07
2022-10-29T12:15:35.712Z,5.40
2022-10-29T12:18:27.631Z,5.35
2022-10-29T12:21:06.732Z,5.07
2022-10-29T12:23:52.033Z,5.03
2022-10-29T12:29:11.566Z,5.55
2022-10-29T12:31:50.863Z,6.03
2022-10-29T12:34:36.077Z,6.38
2022-10-29T12:37:09.728Z,6.20
2022-10-29T12:39:42.160Z,6.38
2022-10-29T12:42:20.213Z,6.50
2022-10-29T12:45:00.402Z,7.28
2022-10-29T12:47:40.955Z,6.18
2022-10-29T12:50:40.049Z,6.20
2022-10-29T12:53:33.938Z,6.25
2022-10-29T12:56:03.558Z,6.22
2022-10-29T12:58:50.545Z,6.00
2022-10-29T13:01:38.181Z,6.65
2022-10-29T13:04:29.708Z,6.03
2022-10-29T13:06:57.856Z,6.40
2022-10-29T13:09:24.944Z,5.80
2022-10-29T13:11:51.974Z,6.85
2022-10-29T13:14:30.658Z,7.22
2022-10-29T13:16:58.789Z,6.68
2022-10-29T13:19:46.948Z,6.90
2022-10-29T13:22:16.323Z,6.47
2022-10-29T13:24:43.449Z,6.40
2022-10-29T13:27:15.902Z,7.13
2022-10-29T13:29:47.944Z,6.55
2022-10-29T13:32:30.731Z,6.38
2022-10-29T13:35:03.454Z,6.38
2022-10-29T13:40:33.194Z,6.38
2022-10-29T13:43:18.718Z,6.72
2022-10-29T13:46:13.432Z,6.00
2022-10-29T13:48:41.446Z,7.50
2022-10-29T13:51:14.240Z,7.18
2022-10-29T13:53:54.090Z,6.68
2022-10-29T13:56:30.399Z,7.03
2022-10-29T13:59:00.226Z,6.80
2022-10-29T14:01:32.116Z,6.32
2022-10-29T14:04:04.054Z,6.68
2022-10-29T14:06:37.752Z,5.95
2022-10-29T14:09:12.339Z,6.65
2022-10-29T14:11:42.968Z,6.60
2022-10-29T14:14:28.494Z,7.15
2022-10-29T14:17:11.507Z,6.63
2022-10-29T14:19:38.658Z,6.88
2022-10-29T14:22:16.406Z,7.43
2022-10-29T14:24:43.528Z,7.65
2022-10-29T14:27:14.071Z,6.70
2022-10-29T14:29:41.302Z,7.20
2022-10-29T14:32:15.439Z,8.00
2022-10-29T14:34:45.101Z,7.90
2022-10-29T14:37:15.797Z,7.68
2022-10-29T14:39:57.871Z,8.20
2022-10-29T14:42:39.405Z,7.20
2022-10-29T14:45:19.226Z,7.93
2022-10-29T14:47:53.166Z,7.30
2022-10-29T14:50:24.726Z,8.38
2022-10-29T14:52:58.087Z,7.80
2022-10-29T14:55:28.116Z,8.20
2022-10-29T14:58:05.638Z,7.60
2022-10-29T15:00:36.773Z,8.40
2022-10-29T15:03:04.740Z,7.50
2022-10-29T15:05:36.117Z,8.43
2022-10-29T15:08:08.850Z,8.23
2022-10-29T15:13:34.666Z,8.35
2022-10-29T15:16:09.118Z,7.45
2022-10-29T15:18:37.613Z,7.93
2022-10-29T15:21:05.151Z,8.55
2022-10-29T15:23:33.977Z,8.40
2022-10-29T15:26:04.595Z,8.30
2022-10-29T15:28:37.664Z,8.00
2022-10-29T15:31:05.203Z,8.77
2022-10-29T15:33:32.750Z,8.05
2022-10-29T15:36:02.608Z,7.85
2022-10-29T15:38:35.052Z,7.93
2022-10-29T15:41:13.947Z,7.97
2022-10-29T15:43:52.027Z,7.97
2022-10-29T15:46:23.383Z,7.68
2022-10-29T15:48:50.538Z,8.07
2022-10-29T15:51:17.665Z,7.78
2022-10-29T15:53:44.712Z,8.32
2022-10-29T15:56:13.237Z,7.82
2022-10-29T15:58:40.940Z,7.63
2022-10-29T16:01:08.603Z,8.23
2022-10-29T16:03:39.308Z,7.38
2022-10-29T16:06:08.333Z,7.47
2022-10-29T16:08:55.324Z,7.53
2022-10-29T16:11:22.550Z,7.88
2022-10-29T16:13:54.470Z,8.10
2022-10-29T16:16:24.183Z,7.95
2022-10-29T16:18:52.597Z,7.47
2022-10-29T16:21:22.791Z,7.80
2022-10-29T16:23:50.492Z,7.70
2022-10-29T16:26:21.002Z,7.72
2022-10-29T16:28:48.107Z,7.85
2022-10-29T16:31:28.138Z,8.98
2022-10-29T16:33:58.931Z,7.72
2022-10-29T16:36:26.168Z,8.55
2022-10-29T16:38:53.325Z,7.85
2022-10-29T16:41:20.667Z,8.88
2022-10-29T16:43:48.142Z,7.80
2022-10-29T16:46:15.351Z,8.00
2022-10-29T16:48:43.291Z,7.30
2022-10-29T16:51:10.380Z,7.13
2022-10-29T16:53:37.445Z,7.45
2022-10-29T16:56:04.705Z,7.20
2022-10-29T16:58:31.902Z,9.43
2022-10-29T17:01:03.401Z,8.70
2022-10-29T17:03:30.919Z,8.32
2022-10-29T17:06:03.890Z,8.20
2022-10-29T17:08:32.435Z,7.78
2022-10-29T17:11:00.786Z,7.50
2022-10-29T17:13:27.868Z,7.60
2022-10-29T17:15:54.968Z,8.10
2022-10-29T17:18:24.102Z,7.90
2022-10-29T17:20:58.106Z,7.65
2022-10-29T17:23:25.242Z,7.60
2022-10-29T17:25:56.477Z,7.75
2022-10-29T17:28:24.405Z,7.03
2022-10-29T17:30:51.623Z,8.15
2022-10-29T17:33:19.291Z,7.63
2022-10-29T17:35:46.489Z,7.70
2022-10-29T17:38:13.611Z,7.55
2022-10-29T17:40:40.669Z,7.47
2022-10-29T17:43:07.704Z,7.43
2022-10-29T17:45:35.221Z,7.82
2022-10-29T17:48:02.280Z,7.90
2022-10-29T17:50:29.427Z,7.60
2022-10-29T17:52:57.787Z,7.90
2022-10-29T17:55:24.858Z,7.00
2022-10-29T17:57:51.913Z,7.40
2022-10-29T18:00:19.457Z,7.30
2022-10-29T18:02:49.953Z,6.90
2022-10-29T18:05:17.317Z,6.80
2022-10-29T18:07:44.400Z,7.07
2022-10-29T18:10:11.566Z,7.35
2022-10-29T18:12:38.694Z,7.55
2022-10-29T18:15:05.758Z,8.27
2022-10-29T18:17:32.990Z,8.40
2022-10-29T18:20:00.049Z,7.95
2022-10-29T18:22:27.094Z,8.02
2022-10-29T18:24:54.138Z,8.10
2022-10-29T18:27:21.221Z,8.80
2022-10-29T18:29:48.258Z,8.27
2022-10-29T18:32:15.421Z,7.70
2022-10-29T18:34:42.562Z,8.20
2022-10-29T18:37:09.938Z,7.53
2022-10-29T18:39:37.021Z,8.00
2022-10-29T18:42:04.316Z,7.63
2022-10-29T18:44:31.372Z,7.13
2022-10-29T18:46:58.420Z,7.82
2022-10-29T18:49:25.537Z,7.47
2022-10-29T18:51:53.596Z,7.38
2022-10-29T18:54:20.755Z,8.35
2022-10-29T18:56:47.865Z,7.50
2022-10-29T18:59:15.002Z,7.22
2022-10-29T19:01:42.219Z,7.65
2022-10-29T19:04:13.115Z,7.22
2022-10-29T19:06:40.241Z,6.55
2022-10-29T19:09:08.613Z,7.82
2022-10-29T19:11:35.728Z,7.55
2022-10-29T19:14:03.737Z,7.68
2022-10-29T19:16:31.585Z,7.05
2022-10-29T19:18:59.737Z,7.38
2022-10-29T19:21:26.908Z,7.55
2022-10-29T19:23:57.318Z,7.88
2022-10-29T19:26:25.297Z,7.57
2022-10-29T19:28:52.354Z,7.85
2022-10-29T19:31:22.483Z,9.00
2022-10-29T19:33:50.485Z,8.32
2022-10-29T19:36:18.132Z,7.85
2022-10-29T19:38:45.290Z,8.10
2022-10-29T19:41:12.542Z,7.80
2022-10-29T19:43:40.161Z,8.10
2022-10-29T19:46:08.614Z,8.32
2022-10-29T19:48:36.284Z,7.47
2022-10-29T19:51:03.332Z,8.70
2022-10-29T19:53:30.763Z,7.97
2022-10-29T19:55:58.085Z,8.18
2022-10-29T19:58:26.765Z,8.27
2022-10-29T20:00:54.157Z,8.18
2022-10-29T20:03:21.502Z,7.90
2022-10-29T20:05:49.922Z,8.30
2022-10-29T20:08:16.974Z,8.30
2022-10-29T20:10:44.155Z,8.80
2022-10-29T20:13:11.209Z,8.25
2022-10-29T20:15:41.347Z,8.20
2022-10-29T20:18:08.400Z,8.13
2022-10-29T20:20:35.546Z,8.18
2022-10-29T20:23:02.705Z,8.98
2022-10-29T20:25:29.877Z,7.22
2022-10-29T20:27:58.024Z,8.32
2022-10-29T20:30:24.818Z,8.65
2022-10-29T20:32:51.903Z,8.60
2022-10-29T20:35:18.932Z,9.18
2022-10-29T20:37:46.013Z,9.48
2022-10-29T20:40:13.208Z,9.32
2022-10-29T20:42:40.470Z,8.27
2022-10-29T20:45:08.035Z,9.25
2022-10-29T20:47:35.091Z,8.27
2022-10-29T20:50:02.326Z,8.82
2022-10-29T20:52:30.339Z,8.73
2022-10-29T20:54:57.382Z,7.97
2022-10-29T20:57:24.448Z,8.52
2022-10-29T20:59:51.559Z,7.88
2022-10-29T21:02:18.724Z,7.57
2022-10-29T21:04:45.925Z,8.00
2022-10-29T21:07:13.041Z,7.72
2022-10-29T21:09:40.122Z,7.72
2022-10-29T21:12:07.377Z,7.80
2022-10-29T21:14:34.407Z,7.32
2022-10-29T21:17:01.456Z,7.10
2022-10-29T21:19:28.670Z,6.93
2022-10-29T21:21:55.887Z,7.68
2022-10-29T21:24:23.017Z,7.15
2022-10-29T21:26:50.073Z,6.45
2022-10-29T21:29:17.183Z,7.78
2022-10-29T21:31:44.229Z,6.63
2022-10-29T21:34:11.281Z,7.32
2022-10-29T21:36:38.308Z,7.28
2022-10-29T21:39:05.349Z,7.35
2022-10-29T21:41:32.739Z,7.38
2022-10-29T21:44:00.211Z,6.82
2022-10-29T21:46:27.654Z,6.80
2022-10-29T21:48:56.318Z,7.10
2022-10-29T21:51:23.405Z,6.97
2022-10-29T21:53:50.087Z,6.80
2022-10-29T21:56:16.787Z,6.63
2022-10-29T21:58:43.944Z,6.18
2022-10-29T22:01:15.704Z,7.10
2022-10-29T22:03:44.532Z,6.28
2022-10-29T22:06:18.962Z,7.07
2022-10-29T22:08:46.400Z,6.72
2022-10-29T22:11:14.041Z,6.32
2022-10-29T22:13:41.262Z,6.40
2022-10-29T22:16:09.253Z,6.78
2022-10-29T22:18:37.049Z,6.88
2022-10-29T22:21:04.116Z,7.03
2022-10-29T22:23:31.165Z,6.60
2022-10-29T22:25:58.212Z,6.47
2022-10-29T22:28:25.298Z,6.45
2022-10-29T22:31:02.889Z,6.93
2022-10-29T22:33:30.225Z,6.43
2022-10-29T22:35:57.342Z,6.63
2022-10-29T22:38:24.382Z,5.97
2022-10-29T22:40:51.425Z,5.97
2022-10-29T22:43:18.508Z,5.50
2022-10-29T22:45:46.194Z,6.28
2022-10-29T22:48:13.339Z,5.90
2022-10-29T22:50:40.427Z,5.90
2022-10-29T22:53:07.491Z,6.28
2022-10-29T22:55:34.580Z,6.03
2022-10-29T22:58:01.650Z,5.60
2022-10-29T23:00:28.712Z,5.82
2022-10-29T23:02:56.119Z,5.63
2022-10-29T23:05:23.498Z,6.82
2022-10-29T23:07:50.545Z,6.15
2022-10-29T23:10:17.609Z,6.20
2022-10-29T23:12:44.649Z,5.80
2022-10-29T23:15:11.725Z,6.15
2022-10-29T23:17:38.814Z,5.88
2022-10-29T23:20:06.034Z,6.40
2022-10-29T23:22:33.076Z,6.18
2022-10-29T23:25:00.129Z,6.13
2022-10-29T23:27:27.215Z,5.68
2022-10-29T23:29:54.248Z,5.90
2022-10-29T23:32:21.331Z,5.70
2022-10-29T23:34:48.469Z,5.53
2022-10-29T23:37:15.523Z,5.97
2022-10-29T23:39:42.587Z,5.60
2022-10-29T23:42:09.631Z,5.75
2022-10-29T23:44:36.673Z,5.80
2022-10-29T23:47:03.734Z,6.03
2022-10-29T23:49:30.849Z,5.82
2022-10-29T23:51:57.934Z,5.93
2022-10-29T23:54:24.977Z,6.03
2022-10-29T23:56:52.020Z,6.07
2022-10-29T23:59:19.050Z,5.75
